Time;durP1;ratioP1;P1;durP2;ratioP2;P2;SDS_P1;SDS_P2;PMS_P1;PMS_P2;Temp;Humidity;BMP_temperature;BMP_pressure;BME280_temperature;BME280_humidity;BME280_pressure;Samples;Min_cycle;Max_cycle;Signal;HPM_P1;HPM_P2
2021/07/05 00:02:20;;;;;;;3.17;1.13;;;;;;;13.10;100.00;95958.88;4993009;28;20128;-77
2021/07/05 00:04:46;;;;;;;3.30;0.90;;;;;;;13.11;100.00;95952.63;4993998;28;20048;-77
2021/07/05 00:07:12;;;;;;;1.90;0.80;;;;;;;13.09;100.00;95941.41;5009671;28;20092;-78
2021/07/05 00:09:38;;;;;;;3.93;0.80;;;;;;;13.08;100.00;95939.78;5003462;28;20120;-78
2021/07/05 00:12:05;;;;;;;3.40;0.80;;;;;;;13.03;100.00;95936.03;5009173;28;20089;-78
2021/07/05 00:14:32;;;;;;;5.33;0.93;;;;;;;12.95;100.00;95937.78;5005750;28;20030;-78
2021/07/05 00:16:59;;;;;;;3.70;0.90;;;;;;;13.01;100.00;95943.31;5007119;28;20069;-78
2021/07/05 00:19:25;;;;;;;2.27;0.80;;;;;;;12.94;100.00;95954.63;5009561;28;20049;-78
2021/07/05 00:21:51;;;;;;;4.93;1.00;;;;;;;12.98;100.00;95939.25;5011034;28;20068;-78
2021/07/05 00:24:18;;;;;;;4.50;1.10;;;;;;;12.89;100.00;95940.31;4992865;28;20025;-78
2021/07/05 00:26:44;;;;;;;2.57;0.90;;;;;;;12.93;100.00;95952.16;5009720;28;20057;-78
2021/07/05 00:29:10;;;;;;;5.50;1.03;;;;;;;12.89;100.00;95949.06;5009155;28;20367;-78
2021/07/05 00:31:36;;;;;;;2.83;0.83;;;;;;;12.92;100.00;95940.78;5017619;28;20449;-78
2021/07/05 00:34:01;;;;;;;5.07;1.00;;;;;;;12.90;100.00;95940.13;5008989;28;20056;-77
2021/07/05 00:36:27;;;;;;;2.77;1.00;;;;;;;12.89;100.00;95935.84;4992053;28;20038;-78
2021/07/05 00:38:53;;;;;;;2.70;0.93;;;;;;;12.83;100.00;95927.84;5025322;28;20033;-78
2021/07/05 00:41:19;;;;;;;2.80;1.10;;;;;;;12.84;100.00;95926.84;5025372;28;20026;-78
2021/07/05 00:43:44;;;;;;;1.97;0.73;;;;;;;12.91;100.00;95938.31;5025559;28;20075;-78
2021/07/05 00:46:10;;;;;;;5.50;1.30;;;;;;;12.87;100.00;95927.28;5024992;28;20045;-78
2021/07/05 00:48:36;;;;;;;2.07;1.10;;;;;;;12.81;100.00;95925.41;5008213;28;20030;-78
2021/07/05 00:51:02;;;;;;;4.33;0.93;;;;;;;12.77;100.00;95926.72;5008262;28;20127;-78
2021/07/05 00:53:28;;;;;;;2.30;0.80;;;;;;;12.76;100.00;95925.09;5008647;28;20022;-79
2021/07/05 00:55:54;;;;;;;3.23;0.80;;;;;;;12.77;100.00;95924.09;5024726;28;20077;-78
2021/07/05 00:58:20;;;;;;;5.67;1.03;;;;;;;12.64;100.00;95921.25;5008357;28;20037;-78
2021/07/05 01:00:46;;;;;;;3.97;1.00;;;;;;;12.67;100.00;95934.09;5005146;28;20042;-78
2021/07/05 01:03:12;;;;;;;0.90;0.70;;;;;;;12.67;100.00;95927.00;5006736;28;20083;-78
2021/07/05 01:05:38;;;;;;;5.60;1.10;;;;;;;12.67;100.00;95921.72;5032217;28;20576;-78
2021/07/05 01:08:05;;;;;;;2.13;1.07;;;;;;;12.63;100.00;95917.81;5011170;28;20033;-78
2021/07/05 01:10:32;;;;;;;3.83;0.90;;;;;;;12.65;100.00;95917.63;5025202;28;20040;-78
2021/07/05 01:12:58;;;;;;;4.20;1.43;;;;;;;12.70;100.00;95918.72;5006511;28;20034;-78
2021/07/05 01:15:29;;;;;;;1.73;1.07;;;;;;;12.67;100.00;95924.34;5015092;28;20065;-78
2021/07/05 01:18:01;;;;;;;2.40;0.90;;;;;;;12.65;100.00;95922.91;5005705;28;20069;-78
2021/07/05 01:20:30;;;;;;;1.23;0.93;;;;;;;12.63;100.00;95919.63;5027087;28;20028;-78
2021/07/05 01:22:57;;;;;;;3.27;0.93;;;;;;;12.67;100.00;95920.91;5010125;28;20034;-78
2021/07/05 01:25:25;;;;;;;2.50;1.10;;;;;;;12.65;100.00;95923.72;5001394;28;20037;-78
2021/07/05 01:27:52;;;;;;;1.80;0.77;;;;;;;12.67;100.00;95929.63;5016652;28;20018;-78
2021/07/05 01:30:19;;;;;;;2.03;1.00;;;;;;;12.68;100.00;95922.56;5007138;28;20034;-78
2021/07/05 01:32:47;;;;;;;1.93;0.90;;;;;;;12.66;100.00;95916.63;5012493;28;20108;-78
2021/07/05 01:35:14;;;;;;;3.60;0.93;;;;;;;12.70;100.00;95910.00;5027407;28;20095;-78
2021/07/05 01:37:40;;;;;;;3.70;1.07;;;;;;;12.63;100.00;95903.78;5006861;28;20053;-78
2021/07/05 01:40:13;;;;;;;1.03;0.80;;;;;;;12.61;100.00;95900.50;5026164;28;20040;-77
2021/07/05 01:42:38;;;;;;;1.70;0.95;;;;;;;12.67;100.00;95892.69;5000565;28;20042;-77
2021/07/05 01:45:05;;;;;;;2.90;1.30;;;;;;;12.63;100.00;95909.06;5010666;28;20037;-78
2021/07/05 01:47:31;;;;;;;3.27;1.10;;;;;;;12.58;100.00;95898.25;5005865;28;20085;-78
2021/07/05 01:49:57;;;;;;;3.60;1.10;;;;;;;12.60;100.00;95886.50;5009543;28;20513;-78
2021/07/05 01:52:22;;;;;;;2.63;1.00;;;;;;;12.63;100.00;95888.78;5005778;28;20053;-78
2021/07/05 01:54:48;;;;;;;2.47;1.03;;;;;;;12.63;100.00;95893.25;5008940;28;20030;-78
2021/07/05 01:57:26;;;;;;;2.97;1.00;;;;;;;12.57;100.00;95892.13;5014616;28;20126;-78
2021/07/05 01:59:57;;;;;;;3.57;1.30;;;;;;;12.52;100.00;95893.69;5014665;28;20065;-77
2021/07/05 02:02:25;;;;;;;1.67;1.00;;;;;;;12.53;100.00;95882.94;5027599;28;20033;-78
2021/07/05 02:04:50;;;;;;;5.20;1.50;;;;;;;12.48;100.00;95888.78;5015880;28;20034;-77
2021/07/05 02:07:16;;;;;;;2.87;1.40;;;;;;;12.49;100.00;95882.50;5013584;28;20036;-78
2021/07/05 02:09:42;;;;;;;3.00;1.20;;;;;;;12.47;100.00;95881.88;5012147;28;20582;-78
2021/07/05 02:12:10;;;;;;;2.00;1.23;;;;;;;12.44;100.00;95889.28;5010881;28;20033;-78
2021/07/05 02:14:36;;;;;;;3.30;1.10;;;;;;;12.39;100.00;95883.75;5032297;28;20032;-78
2021/07/05 02:17:04;;;;;;;2.70;1.30;;;;;;;12.38;100.00;95882.13;5013803;28;20037;-78
2021/07/05 02:19:30;;;;;;;2.37;1.10;;;;;;;12.40;100.00;95888.03;5011028;28;20034;-77
2021/07/05 02:21:56;;;;;;;3.10;1.00;;;;;;;12.43;100.00;95882.38;4992804;28;20065;-78
2021/07/05 02:24:22;;;;;;;3.70;1.00;;;;;;;12.41;100.00;95869.41;5004704;28;20396;-78
2021/07/05 02:26:48;;;;;;;2.03;1.00;;;;;;;12.36;100.00;95871.75;5001194;28;20674;-78
2021/07/05 02:29:13;;;;;;;1.67;1.00;;;;;;;12.38;100.00;95880.31;5009936;28;20029;-78
2021/07/05 02:31:39;;;;;;;3.10;1.20;;;;;;;12.35;100.00;95870.09;4994265;28;20103;-78
2021/07/05 02:34:05;;;;;;;2.57;1.00;;;;;;;12.37;100.00;95875.19;5018422;28;20557;-79
2021/07/05 02:36:31;;;;;;;3.07;1.10;;;;;;;12.38;100.00;95859.22;5011255;28;20511;-78
2021/07/05 02:38:57;;;;;;;3.27;0.90;;;;;;;12.36;100.00;95857.75;5009838;28;20021;-78
2021/07/05 02:41:23;;;;;;;1.37;0.90;;;;;;;12.39;100.00;95865.28;5011446;28;20033;-77
2021/07/05 02:43:49;;;;;;;1.53;1.00;;;;;;;12.42;100.00;95884.22;5002823;28;20665;-77
2021/07/05 02:46:15;;;;;;;4.83;1.20;;;;;;;12.39;100.00;95894.31;5015211;28;20036;-78
2021/07/05 02:48:41;;;;;;;2.03;1.17;;;;;;;12.36;100.00;95897.28;5009907;28;20392;-78
2021/07/05 02:51:08;;;;;;;3.80;1.20;;;;;;;12.42;100.00;95884.22;5034343;28;20072;-78
2021/07/05 02:53:34;;;;;;;2.77;1.20;;;;;;;12.38;100.00;95861.84;5011645;28;20030;-78
2021/07/05 02:56:00;;;;;;;2.53;1.30;;;;;;;12.38;100.00;95864.47;5009232;28;20034;-77
2021/07/05 02:58:26;;;;;;;2.53;1.20;;;;;;;12.39;100.00;95878.47;5006510;28;20026;-78
2021/07/05 03:00:56;;;;;;;2.67;1.50;;;;;;;12.44;100.00;95876.09;5010305;28;20041;-78
2021/07/05 03:03:22;;;;;;;2.97;1.30;;;;;;;12.33;100.00;95866.81;4994018;28;20108;-78
2021/07/05 03:05:48;;;;;;;6.53;1.30;;;;;;;12.26;100.00;95877.25;5011736;28;20038;-78
2021/07/05 03:08:14;;;;;;;3.60;1.97;;;;;;;12.16;100.00;95870.59;5009911;28;20029;-78
2021/07/05 03:10:42;;;;;;;8.17;1.90;;;;;;;12.05;100.00;95879.75;5027600;28;20075;-78
2021/07/05 03:13:13;;;;;;;5.00;1.70;;;;;;;12.08;100.00;95889.94;5004605;28;20022;-78
2021/07/05 03:15:40;;;;;;;4.40;1.60;;;;;;;12.12;100.00;95883.31;5005469;28;20081;-78
2021/07/05 03:18:08;;;;;;;3.40;1.67;;;;;;;12.14;100.00;95883.97;5011631;28;20479;-78
2021/07/05 03:20:37;;;;;;;5.63;1.50;;;;;;;12.22;100.00;95880.44;5011326;28;20034;-78
2021/07/05 03:23:04;;;;;;;3.53;2.00;;;;;;;12.29;100.00;95880.56;5009080;28;20409;-77
2021/07/05 03:25:32;;;;;;;6.13;1.67;;;;;;;12.33;100.00;95874.72;5011581;28;20026;-79
2021/07/05 03:27:58;;;;;;;3.10;1.50;;;;;;;12.31;100.00;95879.38;5010020;28;20030;-78
2021/07/05 03:30:26;;;;;;;3.63;1.50;;;;;;;12.36;100.00;95884.91;4994518;28;20037;-78
2021/07/05 03:32:53;;;;;;;3.70;1.70;;;;;;;12.37;100.00;95877.81;5011942;28;20713;-78
2021/07/05 03:35:20;;;;;;;3.37;1.60;;;;;;;12.39;100.00;95876.66;5003151;28;20044;-77
2021/07/05 03:37:48;;;;;;;4.10;1.40;;;;;;;12.43;100.00;95877.94;5021779;28;20469;-78
2021/07/05 03:40:20;;;;;;;3.07;1.67;;;;;;;12.49;100.00;95886.94;5010584;28;20088;-78
2021/07/05 03:42:48;;;;;;;2.67;1.30;;;;;;;12.50;100.00;95888.59;5003019;28;20073;-78
2021/07/05 03:45:15;;;;;;;3.40;1.70;;;;;;;12.56;100.00;95898.41;5032180;28;20030;-78
2021/07/05 03:47:41;;;;;;;2.53;1.57;;;;;;;12.60;100.00;95890.97;5018552;28;20029;-78
2021/07/05 03:50:09;;;;;;;4.87;1.90;;;;;;;12.68;100.00;95891.72;4995295;28;20160;-78
2021/07/05 03:52:36;;;;;;;3.10;1.47;;;;;;;12.68;100.00;95893.53;5016219;28;20044;-78
2021/07/05 03:55:02;;;;;;;4.40;1.57;;;;;;;12.63;100.00;95890.59;4995982;28;20014;-78
2021/07/05 03:57:28;;;;;;;4.47;1.90;;;;;;;12.62;100.00;95886.34;5010335;28;20087;-78
2021/07/05 03:59:56;;;;;;;4.40;1.50;;;;;;;12.64;100.00;95890.44;5004556;28;20060;-78
2021/07/05 04:02:23;;;;;;;7.47;1.60;;;;;;;12.64;100.00;95889.59;5010988;28;20088;-78
2021/07/05 04:04:49;;;;;;;4.33;1.87;;;;;;;12.68;100.00;95897.00;5010631;28;20060;-77
2021/07/05 04:07:16;;;;;;;3.60;1.80;;;;;;;12.84;100.00;95884.63;5010171;28;20033;-78
2021/07/05 04:09:42;;;;;;;3.33;1.80;;;;;;;12.96;100.00;95883.16;5001594;28;20034;-78
2021/07/05 04:12:10;;;;;;;3.50;1.70;;;;;;;13.06;100.00;95875.78;5005288;28;20038;-78
2021/07/05 04:14:37;;;;;;;4.87;1.60;;;;;;;13.26;100.00;95868.16;5015098;28;20071;-78
2021/07/05 04:17:03;;;;;;;5.67;1.90;;;;;;;13.39;100.00;95860.38;5011369;28;20080;-78
2021/07/05 04:19:29;;;;;;;4.30;1.40;;;;;;;13.53;100.00;95863.16;5013591;28;20014;-78
2021/07/05 04:21:55;;;;;;;2.93;1.30;;;;;;;13.68;100.00;95861.28;5011802;28;20044;-79
2021/07/05 04:24:21;;;;;;;3.23;1.53;;;;;;;13.80;100.00;95851.88;5026741;28;20022;-76
2021/07/05 04:26:47;;;;;;;4.20;1.73;;;;;;;13.97;100.00;95855.06;5027187;28;20151;-78
2021/07/05 04:29:12;;;;;;;4.87;1.80;;;;;;;14.09;100.00;95848.28;5008033;28;20014;-79
2021/07/05 04:31:38;;;;;;;3.83;1.57;;;;;;;14.27;100.00;95860.22;5010023;28;20039;-78
2021/07/05 04:34:04;;;;;;;4.77;1.47;;;;;;;14.42;98.81;95862.75;5011138;28;20048;-81
2021/07/05 04:36:30;;;;;;;4.93;1.70;;;;;;;14.59;98.59;95866.81;4995805;28;20037;-79
2021/07/05 04:38:55;;;;;;;4.33;1.50;;;;;;;14.66;98.14;95865.03;5020027;28;20026;-79
2021/07/05 04:41:21;;;;;;;3.40;1.17;;;;;;;14.70;98.12;95866.25;4991505;28;20041;-79
2021/07/05 04:43:47;;;;;;;2.90;1.30;;;;;;;14.76;98.06;95854.91;5005066;28;20026;-79
2021/07/05 04:46:15;;;;;;;3.67;1.67;;;;;;;14.78;98.94;95862.63;5018613;28;20033;-80
2021/07/05 04:48:41;;;;;;;2.83;1.40;;;;;;;14.72;98.75;95861.59;5003847;28;20033;-79
2021/07/05 04:51:09;;;;;;;3.63;1.63;;;;;;;14.74;99.17;95866.69;5014628;28;20025;-79
2021/07/05 04:53:36;;;;;;;3.43;1.20;;;;;;;14.81;99.40;95859.59;4995773;28;20465;-79
2021/07/05 04:56:01;;;;;;;4.83;1.20;;;;;;;14.79;99.39;95870.41;5010541;28;20046;-79
2021/07/05 04:58:27;;;;;;;5.83;1.30;;;;;;;14.91;98.96;95864.56;5013716;28;20601;-79
2021/07/05 05:00:53;;;;;;;4.83;1.40;;;;;;;14.98;97.83;95868.84;5012049;28;20673;-78
2021/07/05 05:03:19;;;;;;;2.57;1.20;;;;;;;15.16;97.70;95873.66;5011383;28;20072;-79
2021/07/05 05:05:48;;;;;;;4.50;1.25;;;;;;;15.32;96.41;95875.97;5011112;28;20048;-78
2021/07/05 05:08:13;;;;;;;3.55;1.42;;;;;;;15.41;96.40;95878.44;5007460;28;20311;-79
2021/07/05 05:10:40;;;;;;;3.17;1.10;;;;;;;15.57;95.40;95878.91;5020656;28;20030;-79
2021/07/05 05:13:08;;;;;;;2.30;1.40;;;;;;;15.59;96.03;95876.03;5030346;28;20436;-79
2021/07/05 05:15:34;;;;;;;2.08;1.10;;;;;;;15.70;95.88;95878.16;5014102;28;20037;-79
2021/07/05 05:17:59;;;;;;;4.15;1.50;;;;;;;15.56;98.24;95866.69;5014357;28;20034;-79
2021/07/05 05:20:25;;;;;;;3.97;1.65;;;;;;;15.45;100.00;95871.72;5004745;28;20096;-77
2021/07/05 05:22:51;;;;;;;3.45;1.42;;;;;;;15.72;98.10;95862.84;5030400;28;20030;-77
2021/07/05 05:25:19;;;;;;;2.20;1.23;;;;;;;15.60;98.63;95871.59;5012781;28;20179;-78
2021/07/05 05:27:46;;;;;;;3.15;1.48;;;;;;;15.54;99.08;95863.41;5012099;28;20037;-79
2021/07/05 05:30:13;;;;;;;4.55;1.95;;;;;;;15.45;98.88;95866.44;5011376;28;20550;-79
2021/07/05 05:32:39;;;;;;;5.30;1.40;;;;;;;15.59;98.98;95865.44;5013359;28;20032;-79
2021/07/05 05:35:06;;;;;;;3.17;1.58;;;;;;;15.72;100.00;95873.47;5034884;28;20030;-79
2021/07/05 05:37:32;;;;;;;3.90;1.20;;;;;;;15.66;99.27;95876.06;5010265;28;20436;-78
2021/07/05 05:39:59;;;;;;;4.90;1.60;;;;;;;15.42;99.89;95869.47;5008420;28;20104;-77
2021/07/05 05:42:24;;;;;;;3.33;1.40;;;;;;;15.40;98.42;95874.97;5027702;28;20093;-78
2021/07/05 05:44:50;;;;;;;5.07;1.67;;;;;;;15.48;99.51;95874.78;5006232;28;21453;-78
2021/07/05 05:47:16;;;;;;;3.33;1.60;;;;;;;15.54;99.30;95879.31;4990957;28;20027;-78
2021/07/05 05:49:42;;;;;;;3.53;1.70;;;;;;;15.60;99.41;95871.59;5010619;28;20041;-78
2021/07/05 05:52:08;;;;;;;3.00;1.55;;;;;;;15.67;98.29;95877.75;5011918;28;20484;-78
2021/07/05 05:54:34;;;;;;;4.75;1.48;;;;;;;15.64;97.91;95880.78;5011574;28;20103;-78
2021/07/05 05:57:00;;;;;;;6.05;1.90;;;;;;;15.61;99.04;95876.66;5011988;28;20029;-78
2021/07/05 05:59:25;;;;;;;5.97;1.60;;;;;;;15.71;97.49;95877.13;4991713;28;20046;-78
2021/07/05 06:01:51;;;;;;;8.25;1.92;;;;;;;15.67;96.88;95878.56;5005564;28;20041;-77
2021/07/05 06:04:21;;;;;;;3.22;1.48;;;;;;;15.65;97.25;95875.25;5009900;28;20041;-78
2021/07/05 06:06:47;;;;;;;4.55;1.55;;;;;;;15.61;97.50;95881.97;5026567;28;20450;-78
2021/07/05 06:09:13;;;;;;;4.72;1.52;;;;;;;15.75;98.20;95886.31;5012471;28;20105;-78
2021/07/05 06:11:40;;;;;;;3.53;1.50;;;;;;;15.79;97.24;95882.28;5012058;28;20065;-78
2021/07/05 06:14:07;;;;;;;4.40;1.60;;;;;;;15.81;97.49;95882.06;5012398;28;20033;-78
2021/07/05 06:16:35;;;;;;;3.63;1.50;;;;;;;15.93;96.74;95879.66;4994445;28;20535;-78
2021/07/05 06:19:01;;;;;;;4.78;1.70;;;;;;;15.90;96.35;95877.41;5010161;28;20034;-78
2021/07/05 06:21:27;;;;;;;3.63;1.60;;;;;;;15.91;97.03;95877.19;5029009;28;20041;-78
2021/07/05 06:23:57;;;;;;;4.88;2.05;;;;;;;15.92;97.25;95872.69;5005302;28;20031;-78
2021/07/05 06:26:23;;;;;;;5.32;2.08;;;;;;;16.12;96.50;95878.84;4994906;28;20092;-78
2021/07/05 06:28:49;;;;;;;5.07;2.60;;;;;;;16.18;95.96;95877.22;5007201;28;20033;-78
2021/07/05 06:31:15;;;;;;;7.22;2.53;;;;;;;16.31;95.66;95876.44;5002117;28;20400;-78
2021/07/05 06:33:41;;;;;;;5.63;2.25;;;;;;;16.38;95.59;95871.94;5010643;28;20108;-78
2021/07/05 06:36:07;;;;;;;6.22;2.60;;;;;;;16.49;95.11;95879.28;4993666;28;20113;-77
2021/07/05 06:38:33;;;;;;;5.75;2.50;;;;;;;16.53;95.48;95864.56;4990740;28;20018;-78
2021/07/05 06:40:59;;;;;;;6.28;2.33;;;;;;;16.61;95.08;95877.63;5008030;28;20038;-78
2021/07/05 06:43:25;;;;;;;10.05;2.25;;;;;;;16.75;95.44;95872.34;5010520;28;20535;-78
2021/07/05 06:45:51;;;;;;;5.05;2.28;;;;;;;16.81;95.11;95868.88;5001281;28;20096;-78
2021/07/05 06:48:17;;;;;;;4.35;2.03;;;;;;;16.88;94.35;95864.34;5026584;28;20030;-78
2021/07/05 06:50:43;;;;;;;4.28;1.73;;;;;;;16.91;94.23;95862.09;5010379;28;20038;-77
2021/07/05 06:53:11;;;;;;;3.78;1.80;;;;;;;17.08;93.63;95862.47;5010249;28;20444;-76
2021/07/05 06:55:37;;;;;;;7.78;2.05;;;;;;;17.02;93.55;95862.47;5010371;28;20131;-78
2021/07/05 06:58:03;;;;;;;4.43;1.60;;;;;;;17.10;93.33;95873.72;5009303;28;20116;-79
2021/07/05 07:00:30;;;;;;;3.17;1.65;;;;;;;17.17;92.34;95863.88;5010627;28;20572;-78
2021/07/05 07:02:57;;;;;;;2.22;1.27;;;;;;;17.24;92.14;95874.50;5002749;28;20038;-79
2021/07/05 07:05:25;;;;;;;3.38;1.55;;;;;;;17.36;93.20;95867.47;4999983;28;20022;-77
2021/07/05 07:07:53;;;;;;;5.05;1.40;;;;;;;17.44;91.37;95863.78;5016157;28;20033;-78
2021/07/05 07:10:21;;;;;;;2.75;1.40;;;;;;;17.35;90.58;95867.69;5005906;28;20035;-78
2021/07/05 07:12:50;;;;;;;4.68;1.15;;;;;;;17.43;88.44;95862.13;5022813;28;20022;-78
2021/07/05 07:15:19;;;;;;;1.73;0.90;;;;;;;17.54;87.34;95868.63;5018749;28;20460;-78
2021/07/05 07:20:30;;;;;;;3.50;1.50;;;;;;;17.77;84.42;95866.31;5010025;28;20026;-78
2021/07/05 07:22:56;;;;;;;1.90;0.98;;;;;;;17.91;84.48;95864.38;5009410;28;20092;-78
2021/07/05 07:25:22;;;;;;;2.05;0.98;;;;;;;17.93;83.17;95866.81;5011006;28;20443;-79
2021/07/05 07:27:48;;;;;;;4.63;1.02;;;;;;;17.82;83.71;95881.63;5008749;28;20311;-78
2021/07/05 07:30:14;;;;;;;3.85;1.08;;;;;;;17.93;83.79;95882.78;5008817;28;20169;-78
2021/07/05 07:32:42;;;;;;;1.52;0.80;;;;;;;18.17;83.28;95881.19;5009324;28;20030;-79
2021/07/05 07:35:08;;;;;;;2.88;1.13;;;;;;;18.16;82.50;95874.25;4994126;28;20069;-78
2021/07/05 07:37:35;;;;;;;1.75;0.90;;;;;;;18.42;82.57;95878.56;4993231;28;20049;-78
2021/07/05 07:40:11;;;;;;;6.85;1.10;;;;;;;18.48;81.29;95870.53;5011540;28;20033;-78
2021/07/05 07:42:37;;;;;;;2.13;0.88;;;;;;;18.46;82.28;95877.91;4994047;28;20109;-78
2021/07/05 07:45:04;;;;;;;2.67;1.17;;;;;;;18.66;82.67;95871.59;5010621;28;20103;-78
2021/07/05 07:47:29;;;;;;;2.08;1.10;;;;;;;18.58;82.33;95872.69;5025302;28;20072;-78
2021/07/05 07:49:55;;;;;;;1.45;0.90;;;;;;;18.54;80.11;95876.81;5008786;28;20401;-78
2021/07/05 07:52:21;;;;;;;1.50;1.00;;;;;;;18.35;78.44;95875.97;5017005;28;20032;-78
2021/07/05 07:54:47;;;;;;;5.95;0.95;;;;;;;18.46;79.39;95875.25;5007634;28;20026;-78
2021/07/05 07:57:16;;;;;;;2.83;1.23;;;;;;;18.22;79.02;95873.38;4991558;28;20099;-78
2021/07/05 07:59:46;;;;;;;6.55;0.90;;;;;;;18.51;79.87;95880.75;5008265;28;20026;-78
2021/07/05 08:02:12;;;;;;;1.48;1.00;;;;;;;18.50;81.90;95875.63;5024525;28;20038;-78
2021/07/05 08:04:39;;;;;;;5.93;1.55;;;;;;;18.32;81.07;95881.72;5025090;28;20582;-79
2021/07/05 08:07:05;;;;;;;3.30;0.90;;;;;;;18.34;80.70;95888.47;5023245;28;20038;-78
2021/07/05 08:09:31;;;;;;;3.30;0.90;;;;;;;18.40;80.77;95877.97;5024816;28;20022;-78
2021/07/05 08:11:57;;;;;;;1.80;0.90;;;;;;;18.30;81.65;95881.91;5008280;28;20042;-79
2021/07/05 08:14:23;;;;;;;1.55;0.70;;;;;;;18.10;79.74;95890.03;5025561;28;20029;-78
2021/07/05 08:16:49;;;;;;;1.73;0.85;;;;;;;18.19;82.36;95887.13;5008154;28;20037;-78
2021/07/05 08:19:15;;;;;;;2.90;0.90;;;;;;;18.14;81.46;95875.28;4992251;28;20021;-78
2021/07/05 08:21:41;;;;;;;1.77;0.80;;;;;;;18.01;83.07;95882.53;5006047;28;20030;-79
2021/07/05 08:24:08;;;;;;;3.88;1.23;;;;;;;17.96;84.32;95885.81;5006387;28;20021;-78
2021/07/05 08:26:34;;;;;;;1.95;1.00;;;;;;;17.97;85.75;95887.44;5009803;28;20022;-78
2021/07/05 08:29:00;;;;;;;3.42;0.73;;;;;;;17.92;84.85;95886.47;5009599;28;20053;-79
2021/07/05 08:31:26;;;;;;;1.88;1.00;;;;;;;17.89;84.22;95893.03;4997225;28;20501;-78
2021/07/05 08:33:52;;;;;;;1.85;1.05;;;;;;;18.02;86.08;95892.97;5005429;28;20021;-78
2021/07/05 08:36:21;;;;;;;3.53;0.75;;;;;;;17.88;84.68;95886.91;4991814;28;20616;-78
2021/07/05 08:38:47;;;;;;;1.65;1.15;;;;;;;17.91;84.77;95891.00;5024904;28;20026;-78
2021/07/05 08:41:14;;;;;;;2.38;1.00;;;;;;;18.08;83.53;95897.44;5025659;28;20029;-78
2021/07/05 08:43:45;;;;;;;2.10;0.95;;;;;;;17.98;84.14;95896.28;5008467;28;20585;-77
2021/07/05 08:46:14;;;;;;;4.18;1.08;;;;;;;17.89;85.62;95893.03;5008450;28;20202;-78
2021/07/05 08:48:41;;;;;;;2.70;0.90;;;;;;;18.10;84.45;95906.00;5024285;28;20523;-78
2021/07/05 08:51:10;;;;;;;1.38;0.80;;;;;;;18.11;84.94;95901.50;5010586;28;20034;-79
2021/07/05 08:53:41;;;;;;;3.63;0.90;;;;;;;18.19;84.13;95900.44;5014854;28;20488;-78
2021/07/05 08:56:08;;;;;;;3.13;0.70;;;;;;;18.00;84.11;95895.00;5013788;28;20104;-79
2021/07/05 08:58:35;;;;;;;2.72;1.10;;;;;;;18.13;83.12;95892.25;5014072;28;20022;-78
2021/07/05 09:01:01;;;;;;;3.17;0.85;;;;;;;18.32;82.83;95889.69;5012901;28;20113;-78
2021/07/05 09:03:29;;;;;;;2.60;1.00;;;;;;;18.50;81.39;95888.94;5013686;28;20525;-78
2021/07/05 09:06:14;;;;;;;2.50;1.10;;;;;;;18.58;80.52;95891.34;5014655;28;20701;-78
2021/07/05 09:08:46;;;;;;;2.08;1.13;;;;;;;18.62;81.32;95892.53;5026080;28;20042;-79
2021/07/05 09:11:18;;;;;;;3.33;1.15;;;;;;;18.76;81.32;95887.94;5013807;28;20036;-81
2021/07/05 09:13:54;;;;;;;1.25;0.85;;;;;;;18.98;79.59;95886.50;5013246;28;20044;-80
2021/07/05 09:16:35;;;;;;;1.80;0.93;;;;;;;18.69;79.03;95884.50;5007847;28;20514;-81
2021/07/05 09:19:02;;;;;;;5.60;1.30;;;;;;;18.92;79.07;95881.22;4986897;28;20062;-79
2021/07/05 09:21:31;;;;;;;4.22;1.25;;;;;;;18.69;80.49;95876.50;5007720;28;20037;-79
2021/07/05 09:24:02;;;;;;;2.35;0.90;;;;;;;18.89;77.95;95879.81;5010960;28;20065;-78
2021/07/05 09:26:40;;;;;;;3.30;1.20;;;;;;;19.14;78.45;95877.09;5011851;28;20876;-78
2021/07/05 09:29:15;;;;;;;1.17;0.80;;;;;;;18.95;77.92;95886.13;5012024;28;20029;-79
2021/07/05 09:31:53;;;;;;;1.48;0.90;;;;;;;19.04;76.76;95882.94;5028536;28;20164;-78
2021/07/05 09:34:48;;;;;;;1.92;0.77;;;;;;;18.98;76.49;95880.31;4992537;28;20073;-79
2021/07/05 09:37:22;;;;;;;3.08;1.20;;;;;;;19.06;77.49;95880.06;4983025;28;20428;-78
2021/07/05 09:40:03;;;;;;;2.40;1.15;;;;;;;19.06;77.50;95883.53;4996296;28;20485;-79
2021/07/05 09:42:50;;;;;;;3.60;0.90;;;;;;;19.06;75.03;95883.53;5027013;28;20044;-78
2021/07/05 09:45:32;;;;;;;2.70;1.02;;;;;;;19.07;75.03;95882.50;5027289;28;20038;-78
2021/07/05 09:48:24;;;;;;;3.35;0.90;;;;;;;19.34;73.95;95881.38;5009945;28;20053;-79
2021/07/05 09:50:58;;;;;;;3.35;0.88;;;;;;;19.35;72.43;95880.34;5022375;28;20046;-79
2021/07/05 09:53:34;;;;;;;2.67;0.82;;;;;;;19.85;71.16;95880.16;5024429;28;20914;-79
2021/07/05 09:56:15;;;;;;;1.90;1.00;;;;;;;20.09;68.61;95883.75;5012644;28;20030;-79
2021/07/05 09:58:41;;;;;;;2.00;0.93;;;;;;;19.83;70.53;95888.41;5007670;28;20037;-78
2021/07/05 10:01:07;;;;;;;2.88;0.90;;;;;;;19.47;70.82;95887.38;5011246;28;20033;-79
2021/07/05 10:03:36;;;;;;;1.00;0.60;;;;;;;19.59;71.84;95884.78;5011762;28;20044;-79
2021/07/05 10:06:21;;;;;;;1.70;0.75;;;;;;;19.60;70.29;95881.06;4995194;28;20030;-78
2021/07/05 10:08:47;;;;;;;2.08;0.82;;;;;;;19.40;70.50;95873.31;5001664;28;20294;-78
2021/07/05 10:11:15;;;;;;;2.05;0.95;;;;;;;19.44;71.67;95879.81;5008353;28;20029;-77
2021/07/05 10:13:41;;;;;;;1.55;0.70;;;;;;;19.66;71.14;95871.41;5007644;28;20466;-78
2021/07/05 10:16:13;;;;;;;1.70;0.80;;;;;;;20.09;71.36;95873.88;5028103;28;20026;-79
2021/07/05 10:18:41;;;;;;;5.60;0.90;;;;;;;19.65;71.23;95875.09;5006105;28;20065;-79
2021/07/05 10:21:07;;;;;;;1.63;0.68;;;;;;;19.26;71.73;95874.50;5010321;28;20029;-79
2021/07/05 10:23:34;;;;;;;3.53;0.88;;;;;;;18.63;74.90;95878.16;5011996;28;20018;-78
2021/07/05 10:26:00;;;;;;;1.50;0.52;;;;;;;18.65;74.83;95877.97;5009112;28;20184;-79
2021/07/05 10:28:26;;;;;;;0.95;0.50;;;;;;;18.05;76.39;95887.22;5006776;28;20134;-78
2021/07/05 10:30:53;;;;;;;1.10;0.65;;;;;;;18.06;79.40;95888.84;5010211;28;20025;-79
2021/07/05 10:33:20;;;;;;;2.05;0.70;;;;;;;18.18;81.36;95896.97;5012933;28;20037;-79
2021/07/05 10:35:53;;;;;;;1.67;0.65;;;;;;;18.24;81.98;95889.94;5028724;28;20033;-77
2021/07/05 10:38:53;;;;;;;1.40;0.80;;;;;;;18.83;81.99;95873.50;4990338;28;20041;-78
2021/07/05 10:41:20;;;;;;;2.83;1.27;;;;;;;19.19;77.32;95871.09;4991631;28;20044;-79
2021/07/05 10:43:55;;;;;;;0.93;0.70;;;;;;;19.30;76.24;95867.69;4996368;28;20030;-78
2021/07/05 10:46:42;;;;;;;1.30;0.68;;;;;;;19.90;72.94;95861.63;4990484;28;20033;-77
2021/07/05 10:49:27;;;;;;;2.05;0.73;;;;;;;19.94;72.35;95863.59;4987109;28;20054;-77
2021/07/05 10:51:54;;;;;;;1.30;0.60;;;;;;;19.75;71.88;95859.34;5016617;28;20045;-76
2021/07/05 10:54:52;;;;;;;1.23;0.60;;;;;;;20.13;71.31;95855.56;4994920;28;20072;-78
2021/07/05 10:57:21;;;;;;;0.75;0.60;;;;;;;20.83;67.90;95850.31;5006085;28;20025;-78
2021/07/05 10:59:50;;;;;;;1.92;0.60;;;;;;;20.58;68.76;95845.19;5008135;28;20060;-77
2021/07/05 11:02:37;;;;;;;1.45;0.80;;;;;;;21.16;68.05;95840.88;4995936;28;20061;-77
2021/07/05 11:05:25;;;;;;;0.70;0.43;;;;;;;21.64;66.49;95845.88;4993261;28;20030;-76
2021/07/05 11:07:52;;;;;;;2.33;1.00;;;;;;;21.42;66.56;95845.72;5012147;28;20100;-77
2021/07/05 11:10:28;;;;;;;1.30;0.70;;;;;;;21.49;62.02;95844.75;5011403;28;20030;-77
2021/07/05 11:13:01;;;;;;;0.80;0.50;;;;;;;21.87;62.38;95852.22;5008609;28;20100;-77
2021/07/05 11:15:56;;;;;;;1.85;0.60;;;;;;;21.23;66.00;95854.09;5010539;28;20113;-77
2021/07/05 11:18:42;;;;;;;2.38;0.70;;;;;;;21.05;67.08;95858.53;5012286;28;20409;-78
2021/07/05 11:21:23;;;;;;;0.40;0.40;;;;;;;20.67;67.21;95864.38;5005651;28;20030;-76
2021/07/05 11:26:22;;;;;;;1.05;0.52;;;;;;;20.25;71.58;95862.56;5019458;28;20120;-76
2021/07/05 11:29:29;;;;;;;1.20;0.47;;;;;;;19.95;72.54;95849.25;5009558;28;20945;-77
2021/07/05 11:32:01;;;;;;;2.13;1.02;;;;;;;20.28;72.21;95857.78;5009549;28;20447;-77
2021/07/05 11:34:30;;;;;;;0.98;0.57;;;;;;;19.79;74.47;95855.22;5001635;28;20034;-77
2021/07/05 11:37:21;;;;;;;1.02;0.70;;;;;;;20.28;74.53;95847.91;4991459;28;20087;-77
2021/07/05 11:39:49;;;;;;;1.00;0.47;;;;;;;20.05;75.56;95848.66;5017304;28;20565;-76
2021/07/05 11:42:30;;;;;;;1.52;0.90;;;;;;;20.20;74.40;95845.59;5007157;28;20100;-76